createdAt,value
2018-11-07T00:02:03.710Z,85.14
2018-11-07T00:05:20.372Z,84.92
2018-11-07T00:11:49.475Z,85.80
2018-11-07T00:15:05.211Z,85.40
2018-11-07T00:18:21.622Z,86.08
2018-11-07T00:21:38.231Z,86.02
2018-11-07T00:24:54.062Z,86.41
2018-11-07T00:28:10.287Z,86.58
2018-11-07T00:31:22.575Z,87.79
2018-11-07T00:34:46.278Z,87.93
2018-11-07T00:38:02.305Z,86.22
2018-11-07T00:41:18.628Z,87.55
2018-11-07T00:44:34.786Z,88.94
2018-11-07T00:47:50.893Z,88.62
2018-11-07T00:51:07.062Z,86.50
2018-11-07T00:54:23.168Z,87.00
2018-11-07T00:57:39.045Z,89.48
2018-11-07T01:00:55.222Z,91.18
2018-11-07T01:04:11.713Z,92.03
2018-11-07T01:07:27.965Z,92.27
2018-11-07T01:10:44.292Z,92.68
2018-11-07T01:14:00.447Z,92.51
2018-11-07T01:17:05.483Z,92.40
2018-11-07T01:20:30.133Z,92.80
2018-11-07T01:23:53.816Z,92.38
2018-11-07T01:27:09.802Z,92.60
2018-11-07T01:30:25.730Z,93.04
2018-11-07T01:33:41.728Z,93.12
2018-11-07T01:36:57.513Z,92.51
2018-11-07T01:40:16.972Z,91.90
2018-11-07T01:43:33.534Z,88.39
2018-11-07T01:46:49.967Z,87.76
2018-11-07T01:49:54.806Z,86.98
2018-11-07T01:53:11.030Z,87.70
2018-11-07T01:56:23.320Z,88.85
2018-11-07T01:59:39.210Z,88.93
2018-11-07T02:02:55.037Z,90.07
2018-11-07T02:06:11.177Z,90.74
2018-11-07T02:09:27.436Z,90.95
2018-11-07T02:12:44.148Z,88.39
2018-11-07T02:15:59.949Z,87.27
2018-11-07T02:19:15.900Z,87.21
2018-11-07T02:22:31.671Z,88.88
2018-11-07T02:25:48.426Z,89.37
2018-11-07T02:29:05.217Z,90.45
2018-11-07T02:32:21.171Z,91.79
2018-11-07T02:35:37.756Z,92.16
2018-11-07T02:38:53.737Z,92.73
2018-11-07T02:42:09.429Z,92.56
2018-11-07T02:45:26.128Z,92.70
2018-11-07T02:48:49.869Z,91.08
2018-11-07T02:52:05.572Z,91.50
2018-11-07T02:55:21.808Z,92.23
2018-11-07T02:58:37.641Z,91.28
2018-11-07T03:01:55.986Z,88.50
2018-11-07T03:05:12.434Z,87.78
2018-11-07T03:08:31.678Z,88.33
2018-11-07T03:11:47.816Z,87.47
2018-11-07T03:14:52.729Z,87.85
2018-11-07T03:18:09.165Z,88.85
2018-11-07T03:24:41.032Z,90.22
2018-11-07T03:28:04.746Z,91.21
2018-11-07T03:31:09.704Z,89.61
2018-11-07T03:34:33.417Z,89.13
2018-11-07T03:37:38.258Z,87.80
2018-11-07T03:41:01.966Z,88.11
2018-11-07T03:44:25.762Z,88.85
2018-11-07T03:47:49.508Z,89.17
2018-11-07T03:51:24.902Z,88.03
2018-11-07T03:54:18.090Z,88.11
2018-11-07T03:57:41.821Z,88.75
2018-11-07T04:01:05.549Z,87.57
2018-11-07T04:04:21.373Z,87.33
2018-11-07T04:07:26.274Z,87.51
2018-11-07T04:10:49.962Z,87.78
2018-11-07T04:13:54.963Z,88.83
2018-11-07T04:17:18.682Z,89.89
2018-11-07T04:20:42.362Z,89.53
2018-11-07T04:24:02.751Z,89.66
2018-11-07T04:27:26.493Z,90.20
2018-11-07T04:30:50.343Z,89.18
2018-11-07T04:33:55.183Z,88.07
2018-11-07T04:37:30.987Z,86.91
2018-11-07T04:40:42.904Z,87.72
2018-11-07T04:43:58.942Z,88.41
2018-11-07T04:47:14.917Z,89.65
2018-11-07T04:50:31.507Z,90.46
2018-11-07T04:53:47.450Z,90.77
2018-11-07T04:57:03.302Z,90.04
2018-11-07T05:00:42.203Z,90.89
2018-11-07T05:03:52.198Z,90.56
2018-11-07T05:06:57.185Z,90.02
2018-11-07T05:10:02.055Z,89.09
2018-11-07T05:13:25.743Z,87.38
2018-11-07T05:16:49.460Z,88.68
2018-11-07T05:20:05.368Z,88.50
2018-11-07T05:23:21.910Z,88.55
2018-11-07T05:26:37.768Z,89.30
2018-11-07T05:29:53.503Z,89.07
2018-11-07T05:33:09.768Z,89.06
2018-11-07T05:36:25.583Z,89.10
2018-11-07T05:39:41.517Z,89.33
2018-11-07T05:42:58.215Z,89.64
2018-11-07T05:46:14.157Z,90.59
2018-11-07T05:49:30.214Z,90.03
2018-11-07T05:52:49.315Z,89.67
2018-11-07T05:56:05.848Z,89.27
2018-11-07T05:59:21.585Z,89.71
2018-11-07T06:02:37.300Z,90.42
2018-11-07T06:05:53.364Z,90.04
2018-11-07T06:09:09.528Z,90.58
2018-11-07T06:12:25.375Z,90.05
2018-11-07T06:15:41.048Z,88.54
2018-11-07T06:18:57.511Z,89.13
2018-11-07T06:22:13.349Z,89.19
2018-11-07T06:25:29.113Z,88.33
2018-11-07T06:28:45.852Z,87.56
2018-11-07T06:32:11.984Z,87.61
2018-11-07T06:35:16.344Z,88.40
2018-11-07T06:38:40.052Z,88.14
2018-11-07T06:41:57.525Z,87.04
2018-11-07T06:45:13.294Z,86.12
2018-11-07T06:48:29.864Z,86.52
2018-11-07T06:51:34.682Z,87.43
2018-11-07T06:55:12.518Z,89.35
2018-11-07T06:58:13.931Z,89.14
2018-11-07T07:01:30.466Z,87.06
2018-11-07T07:04:46.489Z,86.71
2018-11-07T07:08:02.891Z,87.59
2018-11-07T07:11:18.745Z,88.40
2018-11-07T07:14:35.192Z,89.46
2018-11-07T07:17:51.647Z,89.52
2018-11-07T07:21:07.691Z,89.75
2018-11-07T07:24:23.453Z,88.69
2018-11-07T07:27:40.280Z,87.15
2018-11-07T07:30:45.040Z,87.62
2018-11-07T07:34:20.189Z,87.78
2018-11-07T07:37:32.459Z,88.58
2018-11-07T07:40:48.956Z,88.11
2018-11-07T07:44:05.849Z,87.50
2018-11-07T07:47:29.409Z,85.82
2018-11-07T07:50:53.132Z,86.17
2018-11-07T07:54:08.906Z,86.79
2018-11-07T07:57:25.461Z,86.27
2018-11-07T08:00:42.069Z,86.24
2018-11-07T08:03:58.205Z,85.63
2018-11-07T08:07:14.587Z,84.71
2018-11-07T08:10:30.319Z,84.72
2018-11-07T08:13:35.690Z,82.45
2018-11-07T08:16:59.110Z,82.38
2018-11-07T08:20:34.487Z,82.21
2018-11-07T08:23:38.683Z,81.89
2018-11-07T08:26:55.240Z,81.44
2018-11-07T08:30:11.262Z,81.30
2018-11-07T08:33:27.726Z,80.77
2018-11-07T08:36:43.730Z,80.44
2018-11-07T08:39:59.820Z,79.57
2018-11-07T08:43:15.701Z,79.74
2018-11-07T08:46:31.681Z,78.65
2018-11-07T08:49:47.580Z,78.61
2018-11-07T08:53:03.455Z,78.45
2018-11-07T08:56:19.372Z,78.01
2018-11-07T08:59:35.374Z,78.16
2018-11-07T09:02:51.470Z,79.34
2018-11-07T09:06:09.753Z,78.15
2018-11-07T09:09:25.621Z,78.87
2018-11-07T09:12:41.406Z,79.45
2018-11-07T09:15:46.404Z,80.32
2018-11-07T09:19:10.076Z,80.15
2018-11-07T09:22:33.799Z,78.87
2018-11-07T09:25:57.516Z,78.43
2018-11-07T09:29:21.287Z,78.32
2018-11-07T09:32:44.984Z,79.05
2018-11-07T09:36:08.679Z,79.47
2018-11-07T09:39:13.510Z,80.37
2018-11-07T09:42:37.602Z,80.15
2018-11-07T09:46:01.358Z,80.12
2018-11-07T09:49:17.336Z,79.86
2018-11-07T09:52:33.180Z,80.59
2018-11-07T09:55:49.791Z,80.37
2018-11-07T09:58:54.063Z,80.09
2018-11-07T10:02:10.616Z,81.03
2018-11-07T10:05:26.531Z,81.20
2018-11-07T10:08:31.413Z,78.80
2018-11-07T10:11:55.089Z,79.00
2018-11-07T10:15:12.190Z,79.32
2018-11-07T10:18:28.617Z,77.73
2018-11-07T10:21:45.330Z,77.95
2018-11-07T10:25:01.116Z,79.95
2018-11-07T10:28:17.036Z,77.75
2018-11-07T10:31:32.907Z,76.85
2018-11-07T10:34:48.887Z,76.74
2018-11-07T10:38:04.666Z,76.77
2018-11-07T10:41:20.429Z,76.21
2018-11-07T10:44:36.332Z,75.20
2018-11-07T10:47:52.593Z,74.64
2018-11-07T10:51:08.587Z,75.37
2018-11-07T10:54:24.311Z,76.81
2018-11-07T10:57:40.444Z,76.69
2018-11-07T11:01:14.878Z,78.02
2018-11-07T11:04:30.853Z,76.74
2018-11-07T11:07:47.416Z,76.61
2018-11-07T11:11:03.080Z,76.08
2018-11-07T11:14:19.387Z,76.47
2018-11-07T11:17:35.389Z,76.41
2018-11-07T11:20:40.246Z,76.61
2018-11-07T11:24:04.008Z,75.23
2018-11-07T11:30:44.816Z,74.77
2018-11-07T11:34:00.656Z,74.73
2018-11-07T11:37:16.473Z,74.14
2018-11-07T11:40:33.012Z,74.59
2018-11-07T11:43:49.294Z,76.23
2018-11-07T11:47:05.783Z,74.84
2018-11-07T11:50:22.370Z,73.56
2018-11-07T11:53:38.595Z,71.47
2018-11-07T11:56:43.461Z,71.24
2018-11-07T12:00:20.340Z,71.66
2018-11-07T12:03:25.273Z,70.69
2018-11-07T12:06:18.255Z,70.77
2018-11-07T12:09:41.952Z,70.57
2018-11-07T12:12:50.859Z,70.98
2018-11-07T12:16:14.947Z,71.90
2018-11-07T12:19:31.179Z,70.11
2018-11-07T12:22:49.903Z,69.58
2018-11-07T12:26:06.422Z,69.50
2018-11-07T12:29:18.517Z,69.46
2018-11-07T12:32:34.595Z,69.06
2018-11-07T12:35:50.710Z,70.00
2018-11-07T12:39:06.692Z,70.31
2018-11-07T12:42:22.649Z,71.08
2018-11-07T12:45:38.298Z,70.24
2018-11-07T12:48:54.293Z,70.02
2018-11-07T12:52:09.943Z,70.58
2018-11-07T12:55:25.699Z,69.21
2018-11-07T12:58:41.920Z,70.21
2018-11-07T13:01:57.797Z,71.42
2018-11-07T13:05:17.868Z,71.14
2018-11-07T13:08:34.429Z,71.18
2018-11-07T13:11:50.310Z,71.11
2018-11-07T13:15:06.060Z,70.29
2018-11-07T13:18:22.219Z,70.24
2018-11-07T13:21:38.094Z,70.51
2018-11-07T13:24:42.933Z,70.07
2018-11-07T13:28:06.714Z,70.51
2018-11-07T13:31:11.506Z,69.71
2018-11-07T13:34:35.302Z,70.40
2018-11-07T13:37:52.173Z,70.45
2018-11-07T13:41:07.901Z,70.34
2018-11-07T13:44:24.008Z,70.31
2018-11-07T13:47:47.441Z,70.40
2018-11-07T13:51:11.105Z,71.08
2018-11-07T13:54:27.033Z,70.87
2018-11-07T13:57:43.834Z,71.29
2018-11-07T14:01:00.424Z,69.86
2018-11-07T14:04:16.800Z,69.92
2018-11-07T14:07:32.814Z,69.78
2018-11-07T14:10:48.608Z,69.75
2018-11-07T14:13:53.568Z,69.98
2018-11-07T14:17:17.324Z,70.42
2018-11-07T14:20:33.989Z,70.77
2018-11-07T14:23:49.851Z,71.30
2018-11-07T14:27:05.724Z,70.49
2018-11-07T14:30:21.891Z,71.73
2018-11-07T14:33:38.624Z,72.75
2018-11-07T14:36:54.626Z,73.85
2018-11-07T14:40:10.590Z,71.43
2018-11-07T14:43:15.692Z,71.11
2018-11-07T14:46:39.530Z,71.92
2018-11-07T14:50:03.246Z,72.36
2018-11-07T14:53:18.909Z,71.59
2018-11-07T14:56:35.617Z,71.66
2018-11-07T14:59:51.335Z,72.23
2018-11-07T15:03:07.681Z,71.64
2018-11-07T15:06:24.230Z,71.59
2018-11-07T15:09:40.541Z,74.84
2018-11-07T15:12:56.355Z,76.49
2018-11-07T15:16:12.124Z,73.76
2018-11-07T15:19:28.397Z,72.81
2018-11-07T15:22:44.608Z,73.34
2018-11-07T15:26:08.039Z,71.43
2018-11-07T15:29:43.420Z,70.81
2018-11-07T15:32:47.935Z,71.10
2018-11-07T15:35:52.873Z,71.89
2018-11-07T15:39:28.266Z,71.40
2018-11-07T15:42:33.065Z,71.38
2018-11-07T15:45:48.968Z,71.78
2018-11-07T15:48:53.816Z,71.99
2018-11-07T15:52:17.536Z,71.37
2018-11-07T15:55:52.879Z,71.24
2018-11-07T15:58:57.977Z,71.57
2018-11-07T16:02:14.000Z,72.87
2018-11-07T16:05:30.228Z,72.33
2018-11-07T16:08:35.174Z,71.40
2018-11-07T16:11:58.871Z,71.88
2018-11-07T16:15:03.712Z,77.28
2018-11-07T16:18:27.431Z,77.12
2018-11-07T16:21:43.360Z,78.82
2018-11-07T16:24:59.760Z,79.54
2018-11-07T16:28:16.026Z,79.83
2018-11-07T16:31:32.674Z,78.96
2018-11-07T16:34:49.324Z,77.41
2018-11-07T16:38:05.346Z,80.58
2018-11-07T16:41:21.436Z,78.34
2018-11-07T16:44:37.083Z,75.32
2018-11-07T16:47:53.825Z,76.40
2018-11-07T16:54:29.473Z,77.37
2018-11-07T16:57:34.899Z,78.13
2018-11-07T17:00:58.592Z,75.80
2018-11-07T17:04:15.369Z,76.58
2018-11-07T17:07:31.195Z,76.36
2018-11-07T17:10:46.878Z,74.33
2018-11-07T17:14:03.063Z,72.30
2018-11-07T17:17:19.002Z,72.93
2018-11-07T17:20:35.532Z,74.33
2018-11-07T17:26:26.822Z,72.56
2018-11-07T17:29:46.071Z,72.82
2018-11-07T17:32:55.447Z,72.94
2018-11-07T17:36:11.432Z,73.41
2018-11-07T17:39:29.445Z,72.31
2018-11-07T17:42:46.290Z,73.48
2018-11-07T17:46:02.893Z,74.65
2018-11-07T17:49:19.437Z,73.94
2018-11-07T17:52:35.871Z,73.45
2018-11-07T17:55:52.357Z,73.81
2018-11-07T17:59:08.783Z,74.05
2018-11-07T18:02:24.558Z,73.91
2018-11-07T18:05:41.011Z,73.91
2018-11-07T18:08:57.081Z,74.69
2018-11-07T18:12:12.826Z,74.60
2018-11-07T18:15:29.376Z,74.30
2018-11-07T18:18:45.406Z,73.77
2018-11-07T18:21:50.213Z,74.10
2018-11-07T18:25:26.918Z,75.69
2018-11-07T18:28:50.339Z,76.00
2018-11-07T18:31:55.143Z,76.42
2018-11-07T18:35:20.038Z,74.60
2018-11-07T18:38:35.676Z,74.52
2018-11-07T18:41:52.051Z,74.26
2018-11-07T18:45:08.638Z,73.95
2018-11-07T18:48:13.541Z,74.47
2018-11-07T18:51:37.278Z,73.37
2018-11-07T18:55:01.061Z,74.21
2018-11-07T18:58:16.912Z,75.07
2018-11-07T19:01:33.461Z,74.52
2018-11-07T19:04:49.525Z,74.59
2018-11-07T19:08:13.076Z,75.01
2018-11-07T19:11:36.847Z,76.94
2018-11-07T19:14:41.679Z,76.94
2018-11-07T19:18:05.626Z,74.37
2018-11-07T19:21:22.216Z,73.34
2018-11-07T19:24:38.102Z,73.54
2018-11-07T19:27:53.956Z,73.47
2018-11-07T19:31:09.937Z,73.32
2018-11-07T19:34:28.711Z,72.30
2018-11-07T19:37:44.447Z,71.75
2018-11-07T19:41:01.143Z,72.92
2018-11-07T19:44:16.838Z,72.56
2018-11-07T19:47:32.751Z,71.85
2018-11-07T19:50:48.627Z,71.85
2018-11-07T19:54:05.214Z,72.72
2018-11-07T19:57:21.731Z,72.52
2018-11-07T20:00:26.739Z,71.89
2018-11-07T20:03:45.780Z,71.84
2018-11-07T20:06:55.467Z,71.75
2018-11-07T20:10:12.794Z,70.43
2018-11-07T20:13:29.409Z,71.37
2018-11-07T20:16:45.943Z,71.58
2018-11-07T20:20:02.058Z,72.46
2018-11-07T20:23:18.423Z,72.71
2018-11-07T20:26:23.348Z,72.48
2018-11-07T20:29:28.630Z,72.73
2018-11-07T20:32:33.442Z,73.01
2018-11-07T20:35:52.705Z,73.87
2018-11-07T20:39:02.177Z,75.26
2018-11-07T20:42:18.105Z,73.81
2018-11-07T20:45:41.934Z,75.77
2018-11-07T20:49:06.139Z,77.04
2018-11-07T20:56:46.123Z,78.81
2018-11-07T20:59:48.578Z,79.34
2018-11-07T21:03:04.931Z,80.41
2018-11-07T21:06:28.829Z,80.50
2018-11-07T21:09:52.656Z,79.54
2018-11-07T21:13:16.183Z,80.34
2018-11-07T21:16:39.881Z,79.59
2018-11-07T21:19:55.893Z,79.60
2018-11-07T21:23:12.623Z,78.60
2018-11-07T21:26:28.514Z,78.73
2018-11-07T21:29:44.234Z,78.37
2018-11-07T21:33:00.657Z,79.27
2018-11-07T21:36:16.519Z,79.34
2018-11-07T21:39:32.494Z,79.18
2018-11-07T21:42:48.556Z,79.82
2018-11-07T21:46:04.813Z,78.26
2018-11-07T21:49:21.423Z,78.90
2018-11-07T21:52:37.383Z,78.74
2018-11-07T21:55:53.100Z,79.25
2018-11-07T21:59:09.374Z,79.43
2018-11-07T22:02:25.473Z,80.01
2018-11-07T22:05:42.098Z,80.03
2018-11-07T22:08:58.755Z,79.92
2018-11-07T22:12:14.853Z,79.58
2018-11-07T22:15:30.599Z,80.03
2018-11-07T22:18:47.246Z,78.22
2018-11-07T22:22:03.802Z,79.72
2018-11-07T22:25:20.763Z,80.44
2018-11-07T22:28:32.671Z,80.93
2018-11-07T22:31:48.817Z,80.71
2018-11-07T22:35:05.616Z,80.59
2018-11-07T22:38:10.414Z,81.08
2018-11-07T22:41:48.175Z,81.42
2018-11-07T22:44:57.855Z,82.05
2018-11-07T22:48:21.570Z,82.86
2018-11-07T22:51:38.256Z,83.77
2018-11-07T22:54:54.832Z,83.79
2018-11-07T22:58:10.730Z,84.32
2018-11-07T23:01:45.174Z,84.69
2018-11-07T23:05:01.751Z,84.65
2018-11-07T23:08:18.294Z,83.79
2018-11-07T23:11:39.943Z,83.91
2018-11-07T23:14:56.495Z,84.92
2018-11-07T23:18:12.236Z,85.08
2018-11-07T23:21:28.848Z,85.99
2018-11-07T23:24:44.610Z,85.63
2018-11-07T23:28:00.477Z,86.33
2018-11-07T23:31:16.461Z,87.03
2018-11-07T23:34:32.551Z,86.35
2018-11-07T23:37:48.896Z,86.62
2018-11-07T23:41:05.020Z,87.08
2018-11-07T23:44:20.859Z,87.65
2018-11-07T23:47:37.152Z,87.72
2018-11-07T23:50:53.316Z,87.85
2018-11-07T23:54:09.191Z,87.98
2018-11-07T23:57:25.037Z,87.91
